createdAt,value
2022-07-31T00:00:07.087Z,17.81
2022-07-31T00:01:07.080Z,17.58
2022-07-31T00:02:07.064Z,17.49
2022-07-31T00:03:07.085Z,17.31
2022-07-31T00:04:07.044Z,17.22
2022-07-31T00:05:07.058Z,17.25
2022-07-31T00:06:07.052Z,17.30
2022-07-31T00:07:07.178Z,17.33
2022-07-31T00:08:07.012Z,17.38
2022-07-31T00:09:06.991Z,17.55
2022-07-31T00:10:06.997Z,17.62
2022-07-31T00:11:07.004Z,17.64
2022-07-31T00:12:06.957Z,17.66
2022-07-31T00:13:06.948Z,17.56
2022-07-31T00:14:06.944Z,17.62
2022-07-31T00:15:06.939Z,17.55
2022-07-31T00:16:06.945Z,17.51
2022-07-31T00:17:06.993Z,17.56
2022-07-31T00:18:06.934Z,17.49
2022-07-31T00:19:06.893Z,17.28
2022-07-31T00:20:06.875Z,17.25
2022-07-31T00:21:06.864Z,17.21
2022-07-31T00:22:06.884Z,17.08
2022-07-31T00:23:06.869Z,17.03
2022-07-31T00:24:06.830Z,16.75
2022-07-31T00:25:06.824Z,16.60
2022-07-31T00:26:06.813Z,16.68
2022-07-31T00:27:07.119Z,16.76
2022-07-31T00:28:06.957Z,16.81
2022-07-31T00:29:06.778Z,16.88
2022-07-31T00:30:06.769Z,16.82
2022-07-31T00:31:06.773Z,16.73
2022-07-31T00:32:06.751Z,16.66
2022-07-31T00:33:06.735Z,16.58
2022-07-31T00:34:06.751Z,16.71
2022-07-31T00:35:06.742Z,16.73
2022-07-31T00:36:06.701Z,16.70
2022-07-31T00:37:06.954Z,16.86
2022-07-31T00:38:26.132Z,16.83
2022-07-31T00:39:06.674Z,16.86
2022-07-31T00:40:06.660Z,16.88
2022-07-31T00:41:06.661Z,16.98
2022-07-31T00:42:06.637Z,16.88
2022-07-31T00:43:06.629Z,16.79
2022-07-31T00:44:06.660Z,16.71
2022-07-31T00:45:06.613Z,16.85
2022-07-31T00:46:06.597Z,16.83
2022-07-31T00:47:06.975Z,16.83
2022-07-31T00:48:06.572Z,16.86
2022-07-31T00:49:06.633Z,16.97
2022-07-31T00:50:06.559Z,16.98
2022-07-31T00:51:06.540Z,17.06
2022-07-31T00:52:06.537Z,17.03
2022-07-31T00:53:06.520Z,17.07
2022-07-31T00:54:06.509Z,16.98
2022-07-31T00:55:06.533Z,16.78
2022-07-31T00:56:06.498Z,16.52
2022-07-31T00:57:06.953Z,16.41
2022-07-31T00:58:06.462Z,16.33
2022-07-31T00:59:06.454Z,16.35
2022-07-31T01:00:06.466Z,16.35
2022-07-31T01:01:06.498Z,16.42
2022-07-31T01:02:06.427Z,16.48
2022-07-31T01:03:06.413Z,16.66
2022-07-31T01:04:06.418Z,16.57
2022-07-31T01:05:06.389Z,16.63
2022-07-31T01:06:06.376Z,16.56
2022-07-31T01:07:06.765Z,16.49
2022-07-31T01:08:06.350Z,16.50
2022-07-31T01:09:06.343Z,16.49
2022-07-31T01:10:06.331Z,16.31
2022-07-31T01:11:06.321Z,16.28
2022-07-31T01:12:06.318Z,16.27
2022-07-31T01:13:06.298Z,16.27
2022-07-31T01:14:06.287Z,16.31
2022-07-31T01:15:06.282Z,16.38
2022-07-31T01:16:06.264Z,16.38
2022-07-31T01:17:06.643Z,16.56
2022-07-31T01:18:06.246Z,16.58
2022-07-31T01:19:06.232Z,16.66
2022-07-31T01:20:06.220Z,16.70
2022-07-31T01:21:06.213Z,16.75
2022-07-31T01:22:06.235Z,16.75
2022-07-31T01:23:06.192Z,16.70
2022-07-31T01:24:06.177Z,16.76
2022-07-31T01:25:06.167Z,16.75
2022-07-31T01:26:06.156Z,16.73
2022-07-31T01:27:06.499Z,16.73
2022-07-31T01:28:06.163Z,16.71
2022-07-31T01:29:06.128Z,16.71
2022-07-31T01:30:06.116Z,16.75
2022-07-31T01:31:24.701Z,16.68
2022-07-31T01:32:06.093Z,16.73
2022-07-31T01:33:06.108Z,16.73
2022-07-31T01:34:06.069Z,16.75
2022-07-31T01:35:06.080Z,16.79
2022-07-31T01:36:06.046Z,16.71
2022-07-31T01:37:06.301Z,16.70
2022-07-31T01:38:06.021Z,16.71
2022-07-31T01:39:06.017Z,16.61
2022-07-31T01:40:06.026Z,16.56
2022-07-31T01:41:05.999Z,16.61
2022-07-31T01:42:06.377Z,16.60
2022-07-31T01:43:05.970Z,16.64
2022-07-31T01:44:05.994Z,16.57
2022-07-31T01:45:05.951Z,16.60
2022-07-31T01:46:05.934Z,16.61
2022-07-31T01:47:06.213Z,16.63
2022-07-31T01:48:05.909Z,16.66
2022-07-31T01:49:05.910Z,16.64
2022-07-31T01:50:05.916Z,16.68
2022-07-31T01:51:05.912Z,16.61
2022-07-31T01:52:06.190Z,16.58
2022-07-31T01:53:05.858Z,16.48
2022-07-31T01:54:05.846Z,16.48
2022-07-31T01:55:05.859Z,16.45
2022-07-31T01:56:05.851Z,16.48
2022-07-31T01:57:05.811Z,16.48
2022-07-31T01:58:05.803Z,16.49
2022-07-31T01:59:05.793Z,16.46
2022-07-31T02:00:05.778Z,16.45
2022-07-31T02:01:05.894Z,16.49
2022-07-31T02:02:06.301Z,16.50
2022-07-31T02:03:09.738Z,16.52
2022-07-31T02:04:05.732Z,16.56
2022-07-31T02:05:05.722Z,16.58
2022-07-31T02:06:05.739Z,16.57
2022-07-31T02:07:05.707Z,16.61
2022-07-31T02:08:05.691Z,16.61
2022-07-31T02:09:05.677Z,16.56
2022-07-31T02:10:05.674Z,16.58
2022-07-31T02:11:05.701Z,16.56
2022-07-31T02:12:09.834Z,16.63
2022-07-31T02:13:05.630Z,16.67
2022-07-31T02:14:05.621Z,16.70
2022-07-31T02:15:05.622Z,16.73
2022-07-31T02:16:05.605Z,16.70
2022-07-31T02:17:05.615Z,16.73
2022-07-31T02:18:05.580Z,16.73
2022-07-31T02:19:05.562Z,16.75
2022-07-31T02:20:05.552Z,16.60
2022-07-31T02:21:05.545Z,16.63
2022-07-31T02:22:05.861Z,16.61
2022-07-31T02:23:05.544Z,16.61
2022-07-31T02:24:05.508Z,16.63
2022-07-31T02:25:05.506Z,16.57
2022-07-31T02:26:05.485Z,16.56
2022-07-31T02:27:05.476Z,16.63
2022-07-31T02:28:05.461Z,16.75
2022-07-31T02:29:05.461Z,16.78
2022-07-31T02:30:05.441Z,16.78
2022-07-31T02:31:05.426Z,16.71
2022-07-31T02:32:05.416Z,16.83
2022-07-31T02:33:05.403Z,16.83
2022-07-31T02:34:05.431Z,16.86
2022-07-31T02:35:05.391Z,16.88
2022-07-31T02:36:05.375Z,16.85
2022-07-31T02:37:05.378Z,16.85
2022-07-31T02:38:05.353Z,16.73
2022-07-31T02:39:05.398Z,16.71
2022-07-31T02:40:05.324Z,16.70
2022-07-31T02:41:05.425Z,16.85
2022-07-31T02:42:05.646Z,16.79
2022-07-31T02:43:05.324Z,16.79
2022-07-31T02:44:05.279Z,16.71
2022-07-31T02:45:05.293Z,16.75
2022-07-31T02:46:05.259Z,16.78
2022-07-31T02:47:05.257Z,16.70
2022-07-31T02:48:05.233Z,16.78
2022-07-31T02:49:05.306Z,16.83
2022-07-31T02:50:05.263Z,16.85
2022-07-31T02:51:05.196Z,16.73
2022-07-31T02:52:05.534Z,16.73
2022-07-31T02:53:05.185Z,16.85
2022-07-31T02:54:05.172Z,16.91
2022-07-31T02:55:05.160Z,16.83
2022-07-31T02:56:05.148Z,16.85
2022-07-31T02:57:05.131Z,16.86
2022-07-31T02:58:05.121Z,16.86
2022-07-31T02:59:05.106Z,16.82
2022-07-31T03:00:05.145Z,16.83
2022-07-31T03:01:05.148Z,16.85
2022-07-31T03:02:05.480Z,16.81
2022-07-31T03:03:05.060Z,16.85
2022-07-31T03:04:05.053Z,16.85
2022-07-31T03:05:05.046Z,16.82
2022-07-31T03:06:05.085Z,16.76
2022-07-31T03:07:05.023Z,16.68
2022-07-31T03:08:05.015Z,16.70
2022-07-31T03:09:05.024Z,16.73
2022-07-31T03:10:04.993Z,16.64
2022-07-31T03:11:05.007Z,16.58
2022-07-31T03:12:05.333Z,16.64
2022-07-31T03:13:04.954Z,16.64
2022-07-31T03:14:04.940Z,16.63
2022-07-31T03:15:04.924Z,16.66
2022-07-31T03:16:04.925Z,16.68
2022-07-31T03:17:04.953Z,16.67
2022-07-31T03:18:11.233Z,16.68
2022-07-31T03:19:04.896Z,16.68
2022-07-31T03:20:04.877Z,16.67
2022-07-31T03:21:04.861Z,16.64
2022-07-31T03:22:05.259Z,16.63
2022-07-31T03:23:04.839Z,16.64
2022-07-31T03:24:04.828Z,16.67
2022-07-31T03:25:04.819Z,16.66
2022-07-31T03:26:04.808Z,16.68
2022-07-31T03:27:04.819Z,16.66
2022-07-31T03:28:04.820Z,16.61
2022-07-31T03:29:04.769Z,16.60
2022-07-31T03:30:04.762Z,16.64
2022-07-31T03:31:04.751Z,16.70
2022-07-31T03:32:05.127Z,16.67
2022-07-31T03:33:04.758Z,16.61
2022-07-31T03:34:04.726Z,16.58
2022-07-31T03:35:04.701Z,16.61
2022-07-31T03:36:04.695Z,16.64
2022-07-31T03:37:04.680Z,16.57
2022-07-31T03:38:39.067Z,16.60
2022-07-31T03:39:04.657Z,16.58
2022-07-31T03:40:04.651Z,16.57
2022-07-31T03:41:04.681Z,16.64
2022-07-31T03:42:04.943Z,16.64
2022-07-31T03:43:04.610Z,16.61
2022-07-31T03:44:04.674Z,16.68
2022-07-31T03:45:04.599Z,16.71
2022-07-31T03:46:04.586Z,16.68
2022-07-31T03:47:04.567Z,16.70
2022-07-31T03:48:04.555Z,16.76
2022-07-31T03:49:04.589Z,16.70
2022-07-31T03:50:04.586Z,16.75
2022-07-31T03:51:04.521Z,16.75
2022-07-31T03:52:08.612Z,16.82
2022-07-31T03:53:04.512Z,16.88
2022-07-31T03:54:04.522Z,16.73
2022-07-31T03:55:04.479Z,16.73
2022-07-31T03:56:04.502Z,16.70
2022-07-31T03:57:04.453Z,16.61
2022-07-31T03:58:04.450Z,16.57
2022-07-31T03:59:04.437Z,16.57
2022-07-31T04:00:04.434Z,16.64
2022-07-31T04:01:04.671Z,16.63
2022-07-31T04:02:06.814Z,16.61
2022-07-31T04:03:04.386Z,16.57
2022-07-31T04:04:04.403Z,16.63
2022-07-31T04:05:08.162Z,16.60
2022-07-31T04:06:04.352Z,16.70
2022-07-31T04:07:04.345Z,16.79
2022-07-31T04:08:04.366Z,16.75
2022-07-31T04:09:18.528Z,16.73
2022-07-31T04:10:04.308Z,16.67
2022-07-31T04:11:04.301Z,16.63
2022-07-31T04:12:04.574Z,16.70
2022-07-31T04:13:04.305Z,16.67
2022-07-31T04:14:04.261Z,16.66
2022-07-31T04:15:04.250Z,16.57
2022-07-31T04:16:04.243Z,16.53
2022-07-31T04:17:04.226Z,16.49
2022-07-31T04:18:04.267Z,16.46
2022-07-31T04:19:04.201Z,16.43
2022-07-31T04:20:05.574Z,16.48
2022-07-31T04:21:04.193Z,16.48
2022-07-31T04:22:04.563Z,16.50
2022-07-31T04:23:04.156Z,16.56
2022-07-31T04:24:04.208Z,16.57
2022-07-31T04:25:04.134Z,16.60
2022-07-31T04:26:04.128Z,16.63
2022-07-31T04:27:05.432Z,16.58
2022-07-31T04:28:04.107Z,16.57
2022-07-31T04:29:04.095Z,16.58
2022-07-31T04:30:04.108Z,16.60
2022-07-31T04:31:04.067Z,16.56
2022-07-31T04:32:04.350Z,16.64
2022-07-31T04:33:04.041Z,16.67
2022-07-31T04:34:04.034Z,16.64
2022-07-31T04:35:04.064Z,16.60
2022-07-31T04:36:04.022Z,16.64
2022-07-31T04:37:03.999Z,16.66
2022-07-31T04:38:03.997Z,16.71
2022-07-31T04:39:03.979Z,16.76
2022-07-31T04:40:03.991Z,16.75
2022-07-31T04:41:03.982Z,16.83
2022-07-31T04:42:04.240Z,16.78
2022-07-31T04:43:03.934Z,16.85
2022-07-31T04:44:03.920Z,16.85
2022-07-31T04:45:03.917Z,16.82
2022-07-31T04:46:03.923Z,16.93
2022-07-31T04:47:03.881Z,16.89
2022-07-31T04:48:03.899Z,16.93
2022-07-31T04:49:04.002Z,16.93
2022-07-31T04:50:03.853Z,16.93
2022-07-31T04:51:03.838Z,16.96
2022-07-31T04:52:04.255Z,16.93
2022-07-31T04:53:03.819Z,16.85
2022-07-31T04:54:03.803Z,16.93
2022-07-31T04:55:03.793Z,16.91
2022-07-31T04:56:03.785Z,16.96
2022-07-31T04:57:03.807Z,16.93
2022-07-31T04:58:03.768Z,16.94
2022-07-31T04:59:03.773Z,16.97
2022-07-31T05:00:03.741Z,17.01
2022-07-31T05:01:03.722Z,17.07
2022-07-31T05:02:04.204Z,16.98
2022-07-31T05:03:03.745Z,17.14
2022-07-31T05:04:03.747Z,17.03
2022-07-31T05:05:03.678Z,17.03
2022-07-31T05:06:03.688Z,17.07
2022-07-31T05:07:03.655Z,17.01
2022-07-31T05:08:03.684Z,17.11
2022-07-31T05:09:08.435Z,16.98
2022-07-31T05:10:03.622Z,17.04
2022-07-31T05:11:03.613Z,17.01
2022-07-31T05:12:03.817Z,17.01
2022-07-31T05:13:03.584Z,16.98
2022-07-31T05:14:03.617Z,17.04
2022-07-31T05:15:03.562Z,17.01
2022-07-31T05:16:03.578Z,17.04
2022-07-31T05:17:03.543Z,17.12
2022-07-31T05:18:03.541Z,17.04
2022-07-31T05:19:03.547Z,17.08
2022-07-31T05:20:03.506Z,17.15
2022-07-31T05:21:03.533Z,17.16
2022-07-31T05:22:03.490Z,17.14
2022-07-31T05:23:06.764Z,17.16
2022-07-31T05:24:03.470Z,17.15
2022-07-31T05:25:03.483Z,17.15
2022-07-31T05:26:03.441Z,17.19
2022-07-31T05:27:03.439Z,17.16
2022-07-31T05:28:03.417Z,17.07
2022-07-31T05:29:03.406Z,17.16
2022-07-31T05:30:03.395Z,17.07
2022-07-31T05:31:03.427Z,17.11
2022-07-31T05:32:03.380Z,17.12
2022-07-31T05:33:03.363Z,17.14
2022-07-31T05:34:03.348Z,17.15
2022-07-31T05:35:03.397Z,17.14
2022-07-31T05:36:03.331Z,17.15
2022-07-31T05:37:03.314Z,17.00
2022-07-31T05:38:03.311Z,17.06
2022-07-31T05:39:03.290Z,17.12
2022-07-31T05:40:03.293Z,17.00
2022-07-31T05:41:03.298Z,17.04
2022-07-31T05:42:03.560Z,16.98
2022-07-31T05:43:03.246Z,17.16
2022-07-31T05:44:03.242Z,17.12
2022-07-31T05:45:03.280Z,17.11
2022-07-31T05:46:03.215Z,17.14
2022-07-31T05:47:03.201Z,17.19
2022-07-31T05:48:03.196Z,17.16
2022-07-31T05:49:03.255Z,17.18
2022-07-31T05:50:03.230Z,17.25
2022-07-31T05:51:05.628Z,17.28
2022-07-31T05:52:03.331Z,17.31
2022-07-31T05:53:03.142Z,17.34
2022-07-31T05:54:03.129Z,17.31
2022-07-31T05:55:03.114Z,17.33
2022-07-31T05:56:03.147Z,17.38
2022-07-31T05:57:03.095Z,17.43
2022-07-31T05:58:03.082Z,17.46
2022-07-31T05:59:03.071Z,17.44
2022-07-31T06:00:03.942Z,17.40
2022-07-31T06:01:03.077Z,17.44
2022-07-31T06:02:03.360Z,17.43
2022-07-31T06:03:03.029Z,17.43
2022-07-31T06:04:03.018Z,17.51
2022-07-31T06:05:03.008Z,17.41
2022-07-31T06:06:03.043Z,17.41
2022-07-31T06:07:03.040Z,17.46
2022-07-31T06:08:02.967Z,17.46
2022-07-31T06:09:04.647Z,17.46
2022-07-31T06:10:02.958Z,17.48
2022-07-31T06:11:02.933Z,17.43
2022-07-31T06:12:03.183Z,17.43
2022-07-31T06:13:02.943Z,17.44
2022-07-31T06:14:02.904Z,17.49
2022-07-31T06:15:02.929Z,17.46
2022-07-31T06:16:02.885Z,17.54
2022-07-31T06:17:02.875Z,17.58
2022-07-31T06:18:02.886Z,17.66
2022-07-31T06:19:02.851Z,17.70
2022-07-31T06:20:02.834Z,17.72
2022-07-31T06:21:02.826Z,17.75
2022-07-31T06:22:02.989Z,17.86
2022-07-31T06:23:02.801Z,17.78
2022-07-31T06:24:02.823Z,17.81
2022-07-31T06:25:02.784Z,17.82
2022-07-31T06:26:02.790Z,17.82
2022-07-31T06:27:02.760Z,17.81
2022-07-31T06:28:05.252Z,17.79
2022-07-31T06:29:02.783Z,17.95
2022-07-31T06:30:02.758Z,17.92
2022-07-31T06:31:02.768Z,17.99
2022-07-31T06:32:02.980Z,18.03
2022-07-31T06:33:08.074Z,18.02
2022-07-31T06:34:02.752Z,18.05
2022-07-31T06:35:02.807Z,18.12
2022-07-31T06:36:02.660Z,18.15
2022-07-31T06:37:02.651Z,18.26
2022-07-31T06:38:02.644Z,18.29
2022-07-31T06:39:02.635Z,18.26
2022-07-31T06:40:02.618Z,18.32
2022-07-31T06:41:02.635Z,18.47
2022-07-31T06:42:03.054Z,18.51
2022-07-31T06:43:06.581Z,18.52
2022-07-31T06:44:02.573Z,18.54
2022-07-31T06:45:02.593Z,18.50
2022-07-31T06:46:02.550Z,18.55
2022-07-31T06:47:02.542Z,18.58
2022-07-31T06:48:02.533Z,18.58
2022-07-31T06:49:06.744Z,18.47
2022-07-31T06:50:02.551Z,18.55
2022-07-31T06:51:29.553Z,18.57
2022-07-31T06:52:05.565Z,18.66
2022-07-31T06:53:02.478Z,18.57
2022-07-31T06:54:02.471Z,18.70
2022-07-31T06:55:02.472Z,18.69
2022-07-31T06:56:02.474Z,18.69
2022-07-31T06:57:02.472Z,18.66
2022-07-31T06:58:02.523Z,18.66
2022-07-31T06:59:02.790Z,18.58
2022-07-31T07:00:07.270Z,18.62
2022-07-31T07:01:02.611Z,18.63
2022-07-31T07:02:02.766Z,18.69
2022-07-31T07:03:02.512Z,18.70
2022-07-31T07:04:02.493Z,18.67
2022-07-31T07:05:05.779Z,18.67
2022-07-31T07:06:02.341Z,18.65
2022-07-31T07:07:02.343Z,18.75
2022-07-31T07:08:02.321Z,18.62
2022-07-31T07:09:02.319Z,18.69
2022-07-31T07:10:02.304Z,18.67
2022-07-31T07:11:02.309Z,18.78
2022-07-31T07:12:02.318Z,18.73
2022-07-31T07:13:02.322Z,18.72
2022-07-31T07:14:02.275Z,18.72
2022-07-31T07:15:02.246Z,18.72
2022-07-31T07:16:02.235Z,18.81
2022-07-31T07:17:02.232Z,18.76
2022-07-31T07:18:02.212Z,18.87
2022-07-31T07:19:02.244Z,18.84
2022-07-31T07:20:02.195Z,18.88
2022-07-31T07:21:02.187Z,18.94
2022-07-31T07:22:02.569Z,18.92
2022-07-31T07:23:02.164Z,18.95
2022-07-31T07:24:02.153Z,19.02
2022-07-31T07:25:02.168Z,18.99
2022-07-31T07:26:02.136Z,18.94
2022-07-31T07:27:02.125Z,18.98
2022-07-31T07:28:02.118Z,19.04
2022-07-31T07:29:02.100Z,19.10
2022-07-31T07:30:02.117Z,19.21
2022-07-31T07:31:02.083Z,19.13
2022-07-31T07:32:02.349Z,19.23
2022-07-31T07:33:02.064Z,19.10
2022-07-31T07:34:02.055Z,19.23
2022-07-31T07:35:02.065Z,19.21
2022-07-31T07:36:02.039Z,19.21
2022-07-31T07:37:02.036Z,19.23
2022-07-31T07:38:02.012Z,19.18
2022-07-31T07:39:02.001Z,19.28
2022-07-31T07:40:04.042Z,19.29
2022-07-31T07:41:01.982Z,19.22
2022-07-31T07:42:02.389Z,19.31
2022-07-31T07:43:03.293Z,19.36
2022-07-31T07:44:01.949Z,19.28
2022-07-31T07:45:02.253Z,19.32
2022-07-31T07:46:01.923Z,19.29
2022-07-31T07:47:01.917Z,19.33
2022-07-31T07:48:06.270Z,19.33
2022-07-31T07:49:01.959Z,19.39
2022-07-31T07:50:01.885Z,19.40
2022-07-31T07:51:01.877Z,19.48
2022-07-31T07:52:01.867Z,19.46
2022-07-31T07:53:01.863Z,19.46
2022-07-31T07:54:01.901Z,19.46
2022-07-31T07:55:01.839Z,19.46
2022-07-31T07:56:01.824Z,19.48
2022-07-31T07:57:01.817Z,19.59
2022-07-31T07:58:01.812Z,19.63
2022-07-31T07:59:01.807Z,19.65
2022-07-31T08:00:01.811Z,19.63
2022-07-31T08:01:01.919Z,19.73
2022-07-31T08:02:02.161Z,19.66
2022-07-31T08:03:47.416Z,19.68
2022-07-31T08:04:01.742Z,19.73
2022-07-31T08:05:01.763Z,19.76
2022-07-31T08:06:01.731Z,19.78
2022-07-31T08:07:01.716Z,19.74
2022-07-31T08:08:01.704Z,19.81
2022-07-31T08:09:01.723Z,19.80
2022-07-31T08:10:01.689Z,19.94
2022-07-31T08:11:01.677Z,19.86
2022-07-31T08:12:01.894Z,19.87
2022-07-31T08:13:01.671Z,19.91
2022-07-31T08:14:01.648Z,19.95
2022-07-31T08:15:01.644Z,19.96
2022-07-31T08:16:01.629Z,20.02
2022-07-31T08:17:01.649Z,20.08
2022-07-31T08:18:01.619Z,20.05
2022-07-31T08:19:01.609Z,20.08
2022-07-31T08:20:01.583Z,20.11
2022-07-31T08:21:01.582Z,20.05
2022-07-31T08:22:01.954Z,20.02
2022-07-31T08:23:01.571Z,20.03
2022-07-31T08:24:01.558Z,20.06
2022-07-31T08:25:05.365Z,20.17
2022-07-31T08:26:01.525Z,20.13
2022-07-31T08:27:01.582Z,20.20
2022-07-31T08:28:01.514Z,20.29
2022-07-31T08:29:05.068Z,20.21
2022-07-31T08:30:01.485Z,20.28
2022-07-31T08:31:01.479Z,20.29
2022-07-31T08:32:01.795Z,20.29
2022-07-31T08:33:01.492Z,20.38
2022-07-31T08:34:01.451Z,20.41
2022-07-31T08:35:01.440Z,20.33
2022-07-31T08:36:01.447Z,20.43
2022-07-31T08:38:01.692Z,20.47
2022-07-31T08:38:04.573Z,20.57
2022-07-31T08:39:01.402Z,20.61
2022-07-31T08:40:01.390Z,20.54
2022-07-31T08:41:01.378Z,20.66
2022-07-31T08:42:01.598Z,20.66
2022-07-31T08:43:01.806Z,20.74
2022-07-31T08:44:04.388Z,20.77
2022-07-31T08:45:01.340Z,20.73
2022-07-31T08:46:01.350Z,20.73
2022-07-31T08:47:01.323Z,20.73
2022-07-31T08:48:01.344Z,20.62
2022-07-31T08:49:01.403Z,20.69
2022-07-31T08:50:01.297Z,20.70
2022-07-31T08:51:01.312Z,20.76
2022-07-31T08:52:01.395Z,20.85
2022-07-31T08:53:01.268Z,20.79
2022-07-31T08:54:01.289Z,20.85
2022-07-31T08:55:01.259Z,20.80
2022-07-31T08:56:01.265Z,20.77
2022-07-31T08:57:01.321Z,20.80
2022-07-31T08:58:01.216Z,20.84
2022-07-31T08:59:01.211Z,20.87
2022-07-31T09:00:01.250Z,20.89
2022-07-31T09:01:01.229Z,20.92
2022-07-31T09:02:01.374Z,20.94
2022-07-31T09:03:01.169Z,20.92
2022-07-31T09:04:01.160Z,21.03
2022-07-31T09:05:01.167Z,20.98
2022-07-31T09:06:01.188Z,21.12
2022-07-31T09:07:01.247Z,21.14
2022-07-31T09:08:01.127Z,21.19
2022-07-31T09:09:01.127Z,21.19
2022-07-31T09:10:01.101Z,21.25
2022-07-31T09:11:01.098Z,21.31
2022-07-31T09:12:01.090Z,21.31
2022-07-31T09:13:01.081Z,21.34
2022-07-31T09:14:02.700Z,21.27
2022-07-31T09:15:01.058Z,21.29
2022-07-31T09:16:01.050Z,21.29
2022-07-31T09:17:01.262Z,21.47
2022-07-31T09:18:01.032Z,21.68
2022-07-31T09:19:01.026Z,21.67
2022-07-31T09:20:01.024Z,21.67
2022-07-31T09:21:02.004Z,21.65
2022-07-31T09:22:00.993Z,21.69
2022-07-31T09:23:01.016Z,21.74
2022-07-31T09:24:00.977Z,21.72
2022-07-31T09:25:00.970Z,21.69
2022-07-31T09:26:00.975Z,21.75
2022-07-31T09:27:01.278Z,21.68
2022-07-31T09:28:00.942Z,21.75
2022-07-31T09:29:00.945Z,21.71
2022-07-31T09:30:00.932Z,21.67
2022-07-31T09:31:00.911Z,21.56
2022-07-31T09:32:00.934Z,21.58
2022-07-31T09:33:00.900Z,21.52
2022-07-31T09:34:00.915Z,21.54
2022-07-31T09:35:00.881Z,21.52
2022-07-31T09:36:00.866Z,21.61
2022-07-31T09:37:01.198Z,21.69
2022-07-31T09:38:00.887Z,21.77
2022-07-31T09:39:04.240Z,21.82
2022-07-31T09:40:00.834Z,21.80
2022-07-31T09:41:00.828Z,21.88
2022-07-31T09:42:01.751Z,21.86
2022-07-31T09:43:03.047Z,21.99
2022-07-31T09:44:00.977Z,22.03
2022-07-31T09:45:00.844Z,21.99
2022-07-31T09:46:00.786Z,22.07
2022-07-31T09:47:00.883Z,22.05
2022-07-31T09:48:00.819Z,22.05
2022-07-31T09:49:00.955Z,22.02
2022-07-31T09:50:00.794Z,22.06
2022-07-31T09:51:00.802Z,22.02
2022-07-31T09:52:00.762Z,22.00
2022-07-31T09:53:00.733Z,21.96
2022-07-31T09:54:00.720Z,22.03
2022-07-31T09:55:01.030Z,21.94
2022-07-31T09:56:01.207Z,22.03
2022-07-31T09:57:00.777Z,22.07
2022-07-31T09:58:00.795Z,22.09
2022-07-31T09:59:00.752Z,22.09
2022-07-31T10:00:00.780Z,22.15
2022-07-31T10:01:00.787Z,22.03
2022-07-31T10:02:00.717Z,21.94
2022-07-31T10:03:00.700Z,21.94
2022-07-31T10:04:00.633Z,22.03
2022-07-31T10:05:00.792Z,21.98
2022-07-31T10:06:00.694Z,21.99
2022-07-31T10:07:00.602Z,22.00
2022-07-31T10:08:00.598Z,22.02
2022-07-31T10:09:00.584Z,22.24
2022-07-31T10:10:00.577Z,22.25
2022-07-31T10:11:00.606Z,22.40
2022-07-31T10:12:00.580Z,22.43
2022-07-31T10:13:00.555Z,22.42
2022-07-31T10:14:00.540Z,22.43
2022-07-31T10:15:00.531Z,22.57
2022-07-31T10:16:00.548Z,22.73
2022-07-31T10:17:00.671Z,22.79
2022-07-31T10:18:00.508Z,22.82
2022-07-31T10:19:00.508Z,22.83
2022-07-31T10:20:00.520Z,22.83
2022-07-31T10:21:00.493Z,22.76
2022-07-31T10:22:00.472Z,22.65
2022-07-31T10:23:00.494Z,22.52
2022-07-31T10:24:00.460Z,22.47
2022-07-31T10:25:00.454Z,22.47
2022-07-31T10:26:00.443Z,22.47
2022-07-31T10:27:01.954Z,22.52
2022-07-31T10:28:00.452Z,22.46
2022-07-31T10:29:00.416Z,22.46
2022-07-31T10:30:00.409Z,22.57
2022-07-31T10:31:00.402Z,22.47
2022-07-31T10:32:00.444Z,22.43
2022-07-31T10:33:00.419Z,22.36
2022-07-31T10:34:00.407Z,22.40
2022-07-31T10:35:00.377Z,22.49
2022-07-31T10:36:00.364Z,22.43
2022-07-31T10:37:00.369Z,22.31
2022-07-31T10:38:00.421Z,22.40
2022-07-31T10:39:00.360Z,22.43
2022-07-31T10:40:00.333Z,22.43
2022-07-31T10:41:00.314Z,22.43
2022-07-31T10:42:00.321Z,22.42
2022-07-31T10:43:00.304Z,22.37
2022-07-31T10:44:00.322Z,22.25
2022-07-31T10:45:00.298Z,22.24
2022-07-31T10:46:00.279Z,22.33
2022-07-31T10:47:00.266Z,22.24
2022-07-31T10:48:00.277Z,22.30
2022-07-31T10:49:00.370Z,22.31
2022-07-31T10:50:00.243Z,22.35
2022-07-31T10:51:00.233Z,22.22
2022-07-31T10:52:00.256Z,22.21
2022-07-31T10:53:00.755Z,22.20
2022-07-31T10:54:00.209Z,22.27
2022-07-31T10:55:00.246Z,22.15
2022-07-31T10:56:00.201Z,22.18
2022-07-31T10:57:00.233Z,22.18
2022-07-31T10:58:00.192Z,22.06
2022-07-31T10:59:00.164Z,22.24
2022-07-31T11:00:00.201Z,22.20
2022-07-31T11:01:00.163Z,22.20
2022-07-31T11:02:00.217Z,22.25
2022-07-31T11:03:00.130Z,22.28
2022-07-31T11:04:00.124Z,22.35
2022-07-31T11:05:00.137Z,22.33
2022-07-31T11:06:02.601Z,22.33
2022-07-31T11:07:00.099Z,22.35
2022-07-31T11:08:00.103Z,22.33
2022-07-31T11:09:00.084Z,22.35
2022-07-31T11:10:00.081Z,22.40
2022-07-31T11:11:00.114Z,22.36
2022-07-31T11:12:00.062Z,22.30
2022-07-31T11:13:00.047Z,22.30
2022-07-31T11:14:00.056Z,22.35
2022-07-31T11:15:00.043Z,22.33
2022-07-31T11:16:00.029Z,22.40
2022-07-31T11:17:00.039Z,22.40
2022-07-31T11:18:22.569Z,22.46
2022-07-31T11:19:00.023Z,22.39
2022-07-31T11:19:59.989Z,22.39
2022-07-31T11:20:59.983Z,22.31
2022-07-31T11:21:59.973Z,22.30
2022-07-31T11:22:59.991Z,22.33
2022-07-31T11:24:04.102Z,22.36
2022-07-31T11:24:59.946Z,22.37
2022-07-31T11:25:59.942Z,22.28
2022-07-31T11:26:59.925Z,22.30
2022-07-31T11:27:59.929Z,22.35
2022-07-31T11:28:59.961Z,22.31
2022-07-31T11:30:04.798Z,22.40
2022-07-31T11:30:59.890Z,22.39
2022-07-31T11:31:59.887Z,22.43
2022-07-31T11:32:59.898Z,22.47
2022-07-31T11:33:59.872Z,22.45
2022-07-31T11:34:59.888Z,22.42
2022-07-31T11:35:59.853Z,22.51
2022-07-31T11:36:59.848Z,22.40
2022-07-31T11:38:00.033Z,22.43
2022-07-31T11:38:59.827Z,22.43
2022-07-31T11:39:59.819Z,22.54
2022-07-31T11:40:59.834Z,22.51
2022-07-31T11:41:59.809Z,22.42
2022-07-31T11:43:26.682Z,22.42
2022-07-31T11:43:59.781Z,22.49
2022-07-31T11:44:59.828Z,22.35
2022-07-31T11:45:59.778Z,22.37
2022-07-31T11:46:59.755Z,22.31
2022-07-31T11:48:11.292Z,22.24
2022-07-31T11:48:59.793Z,22.27
2022-07-31T11:49:59.746Z,22.21
2022-07-31T11:50:59.750Z,22.24
2022-07-31T11:51:59.774Z,22.22
2022-07-31T11:52:59.704Z,22.28
2022-07-31T11:53:59.696Z,22.20
2022-07-31T11:54:59.684Z,22.24
2022-07-31T11:55:59.679Z,22.22
2022-07-31T11:56:59.676Z,22.14
2022-07-31T11:57:59.730Z,22.15
2022-07-31T11:58:59.665Z,22.18
2022-07-31T11:59:59.644Z,22.18
2022-07-31T12:00:59.633Z,22.24
2022-07-31T12:01:59.625Z,22.20
2022-07-31T12:02:59.670Z,22.21
2022-07-31T12:04:08.365Z,22.22
2022-07-31T12:04:59.609Z,22.27
2022-07-31T12:05:59.594Z,22.25
2022-07-31T12:06:59.583Z,22.24
2022-07-31T12:07:59.574Z,22.27
2022-07-31T12:08:59.567Z,22.31
2022-07-31T12:10:02.789Z,22.33
2022-07-31T12:10:59.562Z,22.36
2022-07-31T12:11:59.544Z,22.35
2022-07-31T12:12:59.550Z,22.36
2022-07-31T12:13:59.595Z,22.35
2022-07-31T12:14:59.533Z,22.43
2022-07-31T12:15:59.622Z,22.45
2022-07-31T12:16:59.502Z,22.49
2022-07-31T12:17:59.516Z,22.52
2022-07-31T12:18:59.688Z,22.60
2022-07-31T12:19:59.651Z,22.61
2022-07-31T12:20:59.463Z,22.72
2022-07-31T12:21:59.457Z,22.77
2022-07-31T12:22:59.447Z,22.88
2022-07-31T12:23:59.443Z,22.97
2022-07-31T12:24:59.462Z,23.13
2022-07-31T12:25:59.485Z,23.12
2022-07-31T12:26:59.913Z,23.13
2022-07-31T12:27:59.536Z,23.00
2022-07-31T12:28:59.427Z,23.07
2022-07-31T12:29:59.391Z,23.17
2022-07-31T12:30:59.382Z,23.19
2022-07-31T12:31:59.448Z,23.20
2022-07-31T12:32:59.370Z,23.25
2022-07-31T12:33:59.404Z,23.27
2022-07-31T12:34:59.371Z,23.01
2022-07-31T12:35:59.385Z,23.01
2022-07-31T12:36:59.372Z,22.86
2022-07-31T12:37:59.330Z,22.85
2022-07-31T12:38:59.351Z,22.90
2022-07-31T12:40:01.249Z,22.95
2022-07-31T12:40:59.299Z,22.88
2022-07-31T12:41:59.300Z,22.88
2022-07-31T12:42:59.287Z,22.73
2022-07-31T12:43:59.277Z,22.61
2022-07-31T12:44:59.396Z,22.68
2022-07-31T12:45:59.328Z,22.54
2022-07-31T12:46:59.266Z,22.49
2022-07-31T12:47:59.256Z,22.37
2022-07-31T12:48:59.390Z,22.45
2022-07-31T12:49:59.232Z,22.33
2022-07-31T12:50:59.223Z,22.43
2022-07-31T12:51:59.212Z,22.40